sensor_id;sensor_type;location;lat;lon;timestamp;temperature;humidity
40454;DHT22;26160;51.858;4.398;2024-03-23T00:54:33;7.70;99.90
40454;DHT22;26160;51.858;4.398;2024-03-23T00:56:59;7.80;99.90
40454;DHT22;26160;51.858;4.398;2024-03-23T00:59:26;7.80;99.90
40454;DHT22;26160;51.858;4.398;2024-03-23T01:01:57;7.80;99.90
40454;DHT22;26160;51.858;4.398;2024-03-23T01:04:23;7.70;99.90
40454;DHT22;26160;51.858;4.398;2024-03-23T01:06:49;7.70;99.90
40454;DHT22;26160;51.858;4.398;2024-03-23T01:09:15;7.70;99.90
40454;DHT22;26160;51.858;4.398;2024-03-23T01:11:41;7.60;99.90
40454;DHT22;26160;51.858;4.398;2024-03-23T01:14:08;7.50;99.90
40454;DHT22;26160;51.858;4.398;2024-03-23T01:16:34;7.40;99.90
40454;DHT22;26160;51.858;4.398;2024-03-23T01:19:00;7.30;99.90
40454;DHT22;26160;51.858;4.398;2024-03-23T01:21:26;7.30;99.90
40454;DHT22;26160;51.858;4.398;2024-03-23T01:23:52;7.20;99.90
40454;DHT22;26160;51.858;4.398;2024-03-23T01:26:18;7.20;99.90
40454;DHT22;26160;51.858;4.398;2024-03-23T01:28:45;7.10;99.90
40454;DHT22;26160;51.858;4.398;2024-03-23T01:31:11;7.10;99.90
40454;DHT22;26160;51.858;4.398;2024-03-23T01:33:37;7.10;99.90
40454;DHT22;26160;51.858;4.398;2024-03-23T01:36:03;7.00;99.90
40454;DHT22;26160;51.858;4.398;2024-03-23T01:38:30;7.00;99.90
40454;DHT22;26160;51.858;4.398;2024-03-23T01:40:57;7.00;99.90
40454;DHT22;26160;51.858;4.398;2024-03-23T01:43:23;6.90;99.90
40454;DHT22;26160;51.858;4.398;2024-03-23T01:45:50;7.00;99.90
40454;DHT22;26160;51.858;4.398;2024-03-23T01:48:20;7.00;99.90
40454;DHT22;26160;51.858;4.398;2024-03-23T01:50:46;7.00;99.90
40454;DHT22;26160;51.858;4.398;2024-03-23T01:53:14;6.90;99.90
40454;DHT22;26160;51.858;4.398;2024-03-23T01:55:43;6.90;99.90
40454;DHT22;26160;51.858;4.398;2024-03-23T01:58:10;6.90;99.90
40454;DHT22;26160;51.858;4.398;2024-03-23T02:03:32;6.90;99.90
40454;DHT22;26160;51.858;4.398;2024-03-23T02:05:59;6.80;99.90
40454;DHT22;26160;51.858;4.398;2024-03-23T02:08:25;6.90;99.90
40454;DHT22;26160;51.858;4.398;2024-03-23T02:10:51;6.90;99.90
40454;DHT22;26160;51.858;4.398;2024-03-23T02:13:18;6.80;99.90
40454;DHT22;26160;51.858;4.398;2024-03-23T02:15:45;6.80;99.90
40454;DHT22;26160;51.858;4.398;2024-03-23T02:18:11;6.70;99.90
40454;DHT22;26160;51.858;4.398;2024-03-23T02:20:38;6.70;99.90
40454;DHT22;26160;51.858;4.398;2024-03-23T02:23:04;6.70;99.90
40454;DHT22;26160;51.858;4.398;2024-03-23T02:25:33;6.70;99.90
40454;DHT22;26160;51.858;4.398;2024-03-23T02:28:00;6.70;99.90
40454;DHT22;26160;51.858;4.398;2024-03-23T02:30:26;6.80;99.90
40454;DHT22;26160;51.858;4.398;2024-03-23T02:32:53;6.80;99.90
40454;DHT22;26160;51.858;4.398;2024-03-23T02:35:19;6.80;99.90
40454;DHT22;26160;51.858;4.398;2024-03-23T02:37:46;6.80;99.90
40454;DHT22;26160;51.858;4.398;2024-03-23T02:40:15;6.80;93.60
40454;DHT22;26160;51.858;4.398;2024-03-23T02:42:41;6.90;91.20
40454;DHT22;26160;51.858;4.398;2024-03-23T02:45:07;6.90;78.30
40454;DHT22;26160;51.858;4.398;2024-03-23T02:47:33;6.90;84.80
40454;DHT22;26160;51.858;4.398;2024-03-23T02:50:00;6.90;92.30
40454;DHT22;26160;51.858;4.398;2024-03-23T02:52:26;6.90;91.60
40454;DHT22;26160;51.858;4.398;2024-03-23T02:54:52;6.90;76.30
40454;DHT22;26160;51.858;4.398;2024-03-23T02:57:18;6.90;82.50
40454;DHT22;26160;51.858;4.398;2024-03-23T02:59:45;6.80;79.80
40454;DHT22;26160;51.858;4.398;2024-03-23T03:02:13;6.80;84.00
40454;DHT22;26160;51.858;4.398;2024-03-23T03:04:39;6.80;80.50
40454;DHT22;26160;51.858;4.398;2024-03-23T03:07:05;6.70;75.00
40454;DHT22;26160;51.858;4.398;2024-03-23T03:09:31;6.70;57.80
40454;DHT22;26160;51.858;4.398;2024-03-23T03:11:58;6.70;43.00
40454;DHT22;26160;51.858;4.398;2024-03-23T03:14:24;6.70;54.70
40454;DHT22;26160;51.858;4.398;2024-03-23T03:16:50;6.60;70.40
40454;DHT22;26160;51.858;4.398;2024-03-23T03:19:17;6.60;74.40
40454;DHT22;26160;51.858;4.398;2024-03-23T03:21:43;6.50;68.40
40454;DHT22;26160;51.858;4.398;2024-03-23T03:24:09;6.50;57.00
40454;DHT22;26160;51.858;4.398;2024-03-23T03:26:35;6.60;50.40
40454;DHT22;26160;51.858;4.398;2024-03-23T03:29:02;6.50;51.40
40454;DHT22;26160;51.858;4.398;2024-03-23T03:31:28;6.60;36.40
40454;DHT22;26160;51.858;4.398;2024-03-23T03:33:54;6.60;44.30
40454;DHT22;26160;51.858;4.398;2024-03-23T03:36:20;6.50;54.30
40454;DHT22;26160;51.858;4.398;2024-03-23T03:38:47;6.60;50.40
40454;DHT22;26160;51.858;4.398;2024-03-23T03:41:13;6.60;53.30
40454;DHT22;26160;51.858;4.398;2024-03-23T03:43:39;6.60;56.10
40454;DHT22;26160;51.858;4.398;2024-03-23T03:46:05;6.50;69.00
40454;DHT22;26160;51.858;4.398;2024-03-23T03:48:34;6.60;49.30
40454;DHT22;26160;51.858;4.398;2024-03-23T03:51:00;6.60;37.40
40454;DHT22;26160;51.858;4.398;2024-03-23T03:53:26;6.70;30.30
40454;DHT22;26160;51.858;4.398;2024-03-23T03:55:52;6.80;28.50
40454;DHT22;26160;51.858;4.398;2024-03-23T03:58:18;6.60;39.80
40454;DHT22;26160;51.858;4.398;2024-03-23T04:00:44;6.60;36.80
40454;DHT22;26160;51.858;4.398;2024-03-23T04:03:10;6.60;35.40
40454;DHT22;26160;51.858;4.398;2024-03-23T04:05:37;6.60;37.30
40454;DHT22;26160;51.858;4.398;2024-03-23T04:08:05;6.50;48.40
40454;DHT22;26160;51.858;4.398;2024-03-23T04:10:31;6.50;51.40
40454;DHT22;26160;51.858;4.398;2024-03-23T04:12:59;6.40;53.10
40454;DHT22;26160;51.858;4.398;2024-03-23T04:15:25;6.40;51.50
40454;DHT22;26160;51.858;4.398;2024-03-23T04:17:51;6.30;53.80
40454;DHT22;26160;51.858;4.398;2024-03-23T04:20:17;6.30;51.70
40454;DHT22;26160;51.858;4.398;2024-03-23T04:22:43;6.30;65.40
40454;DHT22;26160;51.858;4.398;2024-03-23T04:25:09;6.30;61.90
40454;DHT22;26160;51.858;4.398;2024-03-23T04:27:37;6.20;60.80
40454;DHT22;26160;51.858;4.398;2024-03-23T04:30:03;6.20;64.00
40454;DHT22;26160;51.858;4.398;2024-03-23T04:32:36;6.20;74.70
40454;DHT22;26160;51.858;4.398;2024-03-23T04:35:02;6.20;62.10
40454;DHT22;26160;51.858;4.398;2024-03-23T04:37:34;6.20;57.80
40454;DHT22;26160;51.858;4.398;2024-03-23T04:40:01;6.20;55.10
40454;DHT22;26160;51.858;4.398;2024-03-23T04:42:28;6.20;56.50
40454;DHT22;26160;51.858;4.398;2024-03-23T04:44:54;6.20;65.50
40454;DHT22;26160;51.858;4.398;2024-03-23T04:47:20;6.20;57.10
40454;DHT22;26160;51.858;4.398;2024-03-23T04:49:46;6.20;64.50
40454;DHT22;26160;51.858;4.398;2024-03-23T04:52:12;6.30;67.50
40454;DHT22;26160;51.858;4.398;2024-03-23T04:54:38;6.30;55.60
40454;DHT22;26160;51.858;4.398;2024-03-23T04:57:08;6.40;59.00
40454;DHT22;26160;51.858;4.398;2024-03-23T04:59:34;6.50;57.70
40454;DHT22;26160;51.858;4.398;2024-03-23T05:02:00;6.50;61.60
40454;DHT22;26160;51.858;4.398;2024-03-23T05:04:27;6.60;57.70
40454;DHT22;26160;51.858;4.398;2024-03-23T05:06:53;6.60;53.60
40454;DHT22;26160;51.858;4.398;2024-03-23T05:09:19;6.60;54.40
40454;DHT22;26160;51.858;4.398;2024-03-23T05:11:46;6.60;49.70
40454;DHT22;26160;51.858;4.398;2024-03-23T05:14:13;6.60;54.50
40454;DHT22;26160;51.858;4.398;2024-03-23T05:16:40;6.50;52.30
40454;DHT22;26160;51.858;4.398;2024-03-23T05:19:06;6.50;53.60
40454;DHT22;26160;51.858;4.398;2024-03-23T05:21:33;6.50;55.20
40454;DHT22;26160;51.858;4.398;2024-03-23T05:23:59;6.50;56.10
40454;DHT22;26160;51.858;4.398;2024-03-23T05:26:25;6.50;57.50
40454;DHT22;26160;51.858;4.398;2024-03-23T05:28:51;6.60;57.20
40454;DHT22;26160;51.858;4.398;2024-03-23T05:31:27;6.60;56.00
40454;DHT22;26160;51.858;4.398;2024-03-23T05:33:55;6.70;49.00
40454;DHT22;26160;51.858;4.398;2024-03-23T05:36:21;6.70;47.70
40454;DHT22;26160;51.858;4.398;2024-03-23T05:38:48;6.70;47.50
40454;DHT22;26160;51.858;4.398;2024-03-23T05:41:14;6.70;47.60
40454;DHT22;26160;51.858;4.398;2024-03-23T05:43:40;6.80;42.20
40454;DHT22;26160;51.858;4.398;2024-03-23T05:46:06;6.70;39.40
40454;DHT22;26160;51.858;4.398;2024-03-23T05:48:35;6.80;37.40
40454;DHT22;26160;51.858;4.398;2024-03-23T05:51:02;6.80;34.30
40454;DHT22;26160;51.858;4.398;2024-03-23T05:53:28;6.80;29.40
40454;DHT22;26160;51.858;4.398;2024-03-23T05:56:03;6.80;32.40
40454;DHT22;26160;51.858;4.398;2024-03-23T05:58:35;6.80;35.20
40454;DHT22;26160;51.858;4.398;2024-03-23T06:01:02;6.80;29.30
40454;DHT22;26160;51.858;4.398;2024-03-23T06:03:29;6.80;26.70
40454;DHT22;26160;51.858;4.398;2024-03-23T06:05:55;6.80;27.20
40454;DHT22;26160;51.858;4.398;2024-03-23T06:08:22;6.80;23.70
40454;DHT22;26160;51.858;4.398;2024-03-23T06:10:50;6.80;22.70
40454;DHT22;26160;51.858;4.398;2024-03-23T06:13:20;6.80;21.40
40454;DHT22;26160;51.858;4.398;2024-03-23T06:15:50;6.70;24.50
40454;DHT22;26160;51.858;4.398;2024-03-23T06:18:16;6.70;19.90
40454;DHT22;26160;51.858;4.398;2024-03-23T06:20:42;6.70;17.30
40454;DHT22;26160;51.858;4.398;2024-03-23T06:23:08;6.70;19.20
40454;DHT22;26160;51.858;4.398;2024-03-23T06:25:35;6.70;19.60
40454;DHT22;26160;51.858;4.398;2024-03-23T06:28:01;6.70;20.00
40454;DHT22;26160;51.858;4.398;2024-03-23T06:30:29;6.80;20.10
40454;DHT22;26160;51.858;4.398;2024-03-23T06:32:55;6.80;20.30
40454;DHT22;26160;51.858;4.398;2024-03-23T06:35:21;6.80;16.50
40454;DHT22;26160;51.858;4.398;2024-03-23T06:37:47;6.80;18.30
40454;DHT22;26160;51.858;4.398;2024-03-23T06:40:13;6.80;17.80
40454;DHT22;26160;51.858;4.398;2024-03-23T06:42:40;6.80;12.70
40454;DHT22;26160;51.858;4.398;2024-03-23T06:45:06;6.90;12.50
40454;DHT22;26160;51.858;4.398;2024-03-23T06:47:33;6.90;12.50
40454;DHT22;26160;51.858;4.398;2024-03-23T06:50:03;7.00;11.70
40454;DHT22;26160;51.858;4.398;2024-03-23T06:52:30;7.10;6.60
40454;DHT22;26160;51.858;4.398;2024-03-23T06:54:57;7.10;1.00
40454;DHT22;26160;51.858;4.398;2024-03-23T06:57:23;7.10;1.00
40454;DHT22;26160;51.858;4.398;2024-03-23T06:59:49;7.20;1.00
40454;DHT22;26160;51.858;4.398;2024-03-23T07:02:17;7.30;1.00
40454;DHT22;26160;51.858;4.398;2024-03-23T07:04:43;7.30;1.00
40454;DHT22;26160;51.858;4.398;2024-03-23T07:07:09;7.30;1.00
40454;DHT22;26160;51.858;4.398;2024-03-23T07:09:35;7.30;1.00
40454;DHT22;26160;51.858;4.398;2024-03-23T07:12:03;7.30;1.00
40454;DHT22;26160;51.858;4.398;2024-03-23T07:14:30;7.40;1.00
40454;DHT22;26160;51.858;4.398;2024-03-23T07:16:56;7.40;1.00
40454;DHT22;26160;51.858;4.398;2024-03-23T07:19:23;7.50;1.00
40454;DHT22;26160;51.858;4.398;2024-03-23T07:21:50;7.50;1.00
40454;DHT22;26160;51.858;4.398;2024-03-23T07:24:16;7.60;1.00
40454;DHT22;26160;51.858;4.398;2024-03-23T07:26:42;7.70;1.00
40454;DHT22;26160;51.858;4.398;2024-03-23T07:29:09;7.90;1.00
40454;DHT22;26160;51.858;4.398;2024-03-23T07:31:35;7.90;1.00
40454;DHT22;26160;51.858;4.398;2024-03-23T07:34:01;7.90;1.00
40454;DHT22;26160;51.858;4.398;2024-03-23T07:36:27;8.00;1.00
40454;DHT22;26160;51.858;4.398;2024-03-23T07:38:53;8.00;1.00
40454;DHT22;26160;51.858;4.398;2024-03-23T07:41:20;7.90;1.00
40454;DHT22;26160;51.858;4.398;2024-03-23T07:43:47;7.80;1.00
40454;DHT22;26160;51.858;4.398;2024-03-23T07:46:15;7.70;1.00
40454;DHT22;26160;51.858;4.398;2024-03-23T07:48:41;7.70;1.00
40454;DHT22;26160;51.858;4.398;2024-03-23T07:51:10;7.80;1.00
40454;DHT22;26160;51.858;4.398;2024-03-23T07:53:37;7.90;1.00
40454;DHT22;26160;51.858;4.398;2024-03-23T07:56:08;7.90;1.00
40454;DHT22;26160;51.858;4.398;2024-03-23T07:58:36;8.00;1.00
40454;DHT22;26160;51.858;4.398;2024-03-23T08:01:10;8.10;1.00
40454;DHT22;26160;51.858;4.398;2024-03-23T08:03:37;8.30;1.00
40454;DHT22;26160;51.858;4.398;2024-03-23T08:06:14;8.30;1.00
40454;DHT22;26160;51.858;4.398;2024-03-23T08:08:43;8.40;1.00
40454;DHT22;26160;51.858;4.398;2024-03-23T08:11:09;8.30;1.00
40454;DHT22;26160;51.858;4.398;2024-03-23T08:13:38;8.40;1.00
40454;DHT22;26160;51.858;4.398;2024-03-23T08:16:04;8.30;1.00
40454;DHT22;26160;51.858;4.398;2024-03-23T08:18:31;8.20;1.00
40454;DHT22;26160;51.858;4.398;2024-03-23T08:21:00;8.20;1.00
40454;DHT22;26160;51.858;4.398;2024-03-23T08:23:28;8.10;1.00
40454;DHT22;26160;51.858;4.398;2024-03-23T08:25:58;8.10;1.00
40454;DHT22;26160;51.858;4.398;2024-03-23T08:28:25;8.10;1.00
40454;DHT22;26160;51.858;4.398;2024-03-23T08:30:52;8.10;1.00
40454;DHT22;26160;51.858;4.398;2024-03-23T08:33:18;8.30;1.00
40454;DHT22;26160;51.858;4.398;2024-03-23T08:36:02;8.70;1.00
40454;DHT22;26160;51.858;4.398;2024-03-23T08:38:29;8.80;1.00
40454;DHT22;26160;51.858;4.398;2024-03-23T08:41:01;8.50;1.00
40454;DHT22;26160;51.858;4.398;2024-03-23T08:43:32;8.30;1.00
40454;DHT22;26160;51.858;4.398;2024-03-23T08:46:14;8.40;1.00
40454;DHT22;26160;51.858;4.398;2024-03-23T08:48:41;8.60;1.00
40454;DHT22;26160;51.858;4.398;2024-03-23T08:51:12;8.80;1.00
40454;DHT22;26160;51.858;4.398;2024-03-23T08:53:39;9.00;1.00
40454;DHT22;26160;51.858;4.398;2024-03-23T08:56:06;9.00;1.00
40454;DHT22;26160;51.858;4.398;2024-03-23T08:58:34;9.00;1.00
40454;DHT22;26160;51.858;4.398;2024-03-23T09:01:06;8.80;1.00
40454;DHT22;26160;51.858;4.398;2024-03-23T09:03:32;8.90;1.00
40454;DHT22;26160;51.858;4.398;2024-03-23T09:05:59;8.70;1.00
40454;DHT22;26160;51.858;4.398;2024-03-23T09:08:25;8.70;1.00
40454;DHT22;26160;51.858;4.398;2024-03-23T09:10:52;8.50;1.00
40454;DHT22;26160;51.858;4.398;2024-03-23T09:13:18;8.30;1.00
40454;DHT22;26160;51.858;4.398;2024-03-23T09:15:52;8.20;1.00
40454;DHT22;26160;51.858;4.398;2024-03-23T09:18:22;8.40;1.00
40454;DHT22;26160;51.858;4.398;2024-03-23T09:20:48;8.60;1.00
40454;DHT22;26160;51.858;4.398;2024-03-23T09:23:14;8.70;1.00
40454;DHT22;26160;51.858;4.398;2024-03-23T09:25:40;8.60;1.00
40454;DHT22;26160;51.858;4.398;2024-03-23T09:28:07;8.90;1.00
40454;DHT22;26160;51.858;4.398;2024-03-23T09:30:36;9.30;1.00
40454;DHT22;26160;51.858;4.398;2024-03-23T09:33:09;9.50;1.00
40454;DHT22;26160;51.858;4.398;2024-03-23T09:35:42;9.60;1.00
40454;DHT22;26160;51.858;4.398;2024-03-23T09:38:09;9.80;1.00
40454;DHT22;26160;51.858;4.398;2024-03-23T09:40:40;10.00;99.90
40454;DHT22;26160;51.858;4.398;2024-03-23T09:43:07;9.70;1.00
40454;DHT22;26160;51.858;4.398;2024-03-23T09:45:38;9.50;1.00
40454;DHT22;26160;51.858;4.398;2024-03-23T09:48:05;9.60;1.00
40454;DHT22;26160;51.858;4.398;2024-03-23T09:50:32;9.80;1.00
40454;DHT22;26160;51.858;4.398;2024-03-23T09:52:58;10.10;99.90
40454;DHT22;26160;51.858;4.398;2024-03-23T09:55:25;9.90;1.00
40454;DHT22;26160;51.858;4.398;2024-03-23T09:57:51;9.70;11.90
40454;DHT22;26160;51.858;4.398;2024-03-23T10:00:17;9.70;1.00
40454;DHT22;26160;51.858;4.398;2024-03-23T10:02:43;9.60;99.90
40454;DHT22;26160;51.858;4.398;2024-03-23T10:05:23;9.40;99.90
40454;DHT22;26160;51.858;4.398;2024-03-23T10:07:52;9.20;99.90
40454;DHT22;26160;51.858;4.398;2024-03-23T10:10:18;8.90;1.00
40454;DHT22;26160;51.858;4.398;2024-03-23T10:12:49;8.80;1.00
40454;DHT22;26160;51.858;4.398;2024-03-23T10:15:19;8.80;1.00
40454;DHT22;26160;51.858;4.398;2024-03-23T10:17:46;8.80;1.00
40454;DHT22;26160;51.858;4.398;2024-03-23T10:20:12;9.30;1.00
40454;DHT22;26160;51.858;4.398;2024-03-23T10:22:39;10.00;1.00
40454;DHT22;26160;51.858;4.398;2024-03-23T10:25:09;10.20;99.90
40454;DHT22;26160;51.858;4.398;2024-03-23T10:27:35;9.90;99.90
40454;DHT22;26160;51.858;4.398;2024-03-23T10:30:13;9.90;99.90
40454;DHT22;26160;51.858;4.398;2024-03-23T10:32:42;9.70;99.90
40454;DHT22;26160;51.858;4.398;2024-03-23T10:35:19;9.90;1.00
40454;DHT22;26160;51.858;4.398;2024-03-23T10:37:48;10.30;99.90
40454;DHT22;26160;51.858;4.398;2024-03-23T10:40:17;10.30;31.30
40454;DHT22;26160;51.858;4.398;2024-03-23T10:42:44;10.10;99.90
40454;DHT22;26160;51.858;4.398;2024-03-23T10:45:10;10.10;1.00
40454;DHT22;26160;51.858;4.398;2024-03-23T10:47:37;9.60;1.00
40454;DHT22;26160;51.858;4.398;2024-03-23T10:50:04;9.20;99.90
40454;DHT22;26160;51.858;4.398;2024-03-23T10:52:33;8.90;1.00
40454;DHT22;26160;51.858;4.398;2024-03-23T10:55:00;9.10;99.90
40454;DHT22;26160;51.858;4.398;2024-03-23T10:57:34;9.00;99.90
40454;DHT22;26160;51.858;4.398;2024-03-23T11:00:03;8.90;1.00
40454;DHT22;26160;51.858;4.398;2024-03-23T11:02:29;8.80;1.00
40454;DHT22;26160;51.858;4.398;2024-03-23T11:04:55;8.90;1.00
40454;DHT22;26160;51.858;4.398;2024-03-23T11:07:28;9.20;99.90
40454;DHT22;26160;51.858;4.398;2024-03-23T11:09:54;9.10;99.90
40454;DHT22;26160;51.858;4.398;2024-03-23T11:15:06;9.70;99.70
40454;DHT22;26160;51.858;4.398;2024-03-23T11:17:37;10.20;99.90
40454;DHT22;26160;51.858;4.398;2024-03-23T11:20:13;10.80;99.90
40454;DHT22;26160;51.858;4.398;2024-03-23T11:22:46;10.60;1.00
40454;DHT22;26160;51.858;4.398;2024-03-23T11:25:20;10.90;1.00
40454;DHT22;26160;51.858;4.398;2024-03-23T11:27:47;10.80;10.60
40454;DHT22;26160;51.858;4.398;2024-03-23T11:30:18;10.60;1.00
40454;DHT22;26160;51.858;4.398;2024-03-23T11:32:46;10.50;1.00
40454;DHT22;26160;51.858;4.398;2024-03-23T11:35:29;9.80;1.00
40454;DHT22;26160;51.858;4.398;2024-03-23T11:38:12;10.00;1.00
40454;DHT22;26160;51.858;4.398;2024-03-23T11:40:40;10.20;1.00
40454;DHT22;26160;51.858;4.398;2024-03-23T11:43:08;10.40;99.90
40454;DHT22;26160;51.858;4.398;2024-03-23T11:45:39;10.30;99.90
40454;DHT22;26160;51.858;4.398;2024-03-23T11:48:11;10.10;1.00
40454;DHT22;26160;51.858;4.398;2024-03-23T11:50:40;10.00;99.90
40454;DHT22;26160;51.858;4.398;2024-03-23T11:55:55;10.40;99.90
40454;DHT22;26160;51.858;4.398;2024-03-23T11:58:23;10.40;99.90
40454;DHT22;26160;51.858;4.398;2024-03-23T12:00:57;10.50;99.90
40454;DHT22;26160;51.858;4.398;2024-03-23T12:03:24;10.40;1.00
40454;DHT22;26160;51.858;4.398;2024-03-23T12:06:01;10.30;1.00
40454;DHT22;26160;51.858;4.398;2024-03-23T12:08:32;10.10;1.00
40454;DHT22;26160;51.858;4.398;2024-03-23T12:11:13;10.00;99.90
40454;DHT22;26160;51.858;4.398;2024-03-23T12:13:42;10.20;1.00
40454;DHT22;26160;51.858;4.398;2024-03-23T12:16:19;10.40;1.00
40454;DHT22;26160;51.858;4.398;2024-03-23T12:18:49;10.50;1.00
40454;DHT22;26160;51.858;4.398;2024-03-23T12:21:17;10.40;1.00
40454;DHT22;26160;51.858;4.398;2024-03-23T12:23:44;9.90;99.90
40454;DHT22;26160;51.858;4.398;2024-03-23T12:26:11;9.70;25.10
40454;DHT22;26160;51.858;4.398;2024-03-23T12:28:38;9.70;1.00
40454;DHT22;26160;51.858;4.398;2024-03-23T12:31:04;10.00;1.00
40454;DHT22;26160;51.858;4.398;2024-03-23T12:33:31;10.20;1.00
40454;DHT22;26160;51.858;4.398;2024-03-23T12:35:57;10.50;1.00
40454;DHT22;26160;51.858;4.398;2024-03-23T12:38:23;10.40;99.90
40454;DHT22;26160;51.858;4.398;2024-03-23T12:40:50;10.20;99.90
40454;DHT22;26160;51.858;4.398;2024-03-23T12:43:17;10.30;1.00
40454;DHT22;26160;51.858;4.398;2024-03-23T12:45:47;10.60;1.00
40454;DHT22;26160;51.858;4.398;2024-03-23T12:48:13;10.90;1.00
40454;DHT22;26160;51.858;4.398;2024-03-23T12:50:39;11.10;99.90
40454;DHT22;26160;51.858;4.398;2024-03-23T12:53:06;10.90;97.20
40454;DHT22;26160;51.858;4.398;2024-03-23T12:55:34;10.90;1.00
40454;DHT22;26160;51.858;4.398;2024-03-23T12:58:00;10.70;99.90
40454;DHT22;26160;51.858;4.398;2024-03-23T13:00:26;10.70;99.90
40454;DHT22;26160;51.858;4.398;2024-03-23T13:02:53;10.80;99.90
40454;DHT22;26160;51.858;4.398;2024-03-23T13:05:19;11.10;1.00
40454;DHT22;26160;51.858;4.398;2024-03-23T13:07:45;11.20;1.00
40454;DHT22;26160;51.858;4.398;2024-03-23T13:10:11;11.20;1.00
40454;DHT22;26160;51.858;4.398;2024-03-23T13:12:37;10.90;99.90
40454;DHT22;26160;51.858;4.398;2024-03-23T13:15:03;10.80;99.90
40454;DHT22;26160;51.858;4.398;2024-03-23T13:17:30;10.80;99.90
40454;DHT22;26160;51.858;4.398;2024-03-23T13:19:56;10.70;99.90
40454;DHT22;26160;51.858;4.398;2024-03-23T13:22:22;10.60;73.50
40454;DHT22;26160;51.858;4.398;2024-03-23T13:24:48;10.30;1.00
40454;DHT22;26160;51.858;4.398;2024-03-23T13:27:15;10.10;1.00
40454;DHT22;26160;51.858;4.398;2024-03-23T13:29:41;10.30;1.00
40454;DHT22;26160;51.858;4.398;2024-03-23T13:32:08;10.30;1.00
40454;DHT22;26160;51.858;4.398;2024-03-23T13:34:34;10.30;99.90
40454;DHT22;26160;51.858;4.398;2024-03-23T13:37:01;10.60;1.00
40454;DHT22;26160;51.858;4.398;2024-03-23T13:39:27;10.60;1.00
40454;DHT22;26160;51.858;4.398;2024-03-23T13:41:54;10.40;99.90
40454;DHT22;26160;51.858;4.398;2024-03-23T13:44:23;10.20;1.00
40454;DHT22;26160;51.858;4.398;2024-03-23T13:46:49;9.90;1.00
40454;DHT22;26160;51.858;4.398;2024-03-23T13:51:53;9.00;99.90
40454;DHT22;26160;51.858;4.398;2024-03-23T13:54:20;8.50;1.00
40454;DHT22;26160;51.858;4.398;2024-03-23T13:56:54;7.90;1.00
40454;DHT22;26160;51.858;4.398;2024-03-23T13:59:21;7.80;1.00
40454;DHT22;26160;51.858;4.398;2024-03-23T14:01:49;8.00;1.00
40454;DHT22;26160;51.858;4.398;2024-03-23T14:04:17;8.20;1.00
40454;DHT22;26160;51.858;4.398;2024-03-23T14:06:45;8.40;1.00
40454;DHT22;26160;51.858;4.398;2024-03-23T14:09:15;8.60;1.00
40454;DHT22;26160;51.858;4.398;2024-03-23T14:11:47;8.90;1.00
40454;DHT22;26160;51.858;4.398;2024-03-23T14:14:13;9.00;1.00
40454;DHT22;26160;51.858;4.398;2024-03-23T14:16:45;9.10;1.00
40454;DHT22;26160;51.858;4.398;2024-03-23T14:19:11;9.40;99.90
40454;DHT22;26160;51.858;4.398;2024-03-23T14:21:37;9.60;87.30
40454;DHT22;26160;51.858;4.398;2024-03-23T14:24:04;9.70;99.90
40454;DHT22;26160;51.858;4.398;2024-03-23T14:26:30;9.50;1.00
40454;DHT22;26160;51.858;4.398;2024-03-23T14:28:56;9.30;1.00
40454;DHT22;26160;51.858;4.398;2024-03-23T14:31:22;9.20;1.00
40454;DHT22;26160;51.858;4.398;2024-03-23T14:33:49;9.30;1.00
40454;DHT22;26160;51.858;4.398;2024-03-23T14:36:17;9.30;1.00
40454;DHT22;26160;51.858;4.398;2024-03-23T14:38:49;9.10;99.90
40454;DHT22;26160;51.858;4.398;2024-03-23T14:41:19;9.20;1.00
40454;DHT22;26160;51.858;4.398;2024-03-23T14:43:45;9.20;99.90
40454;DHT22;26160;51.858;4.398;2024-03-23T14:46:15;8.90;1.00
40454;DHT22;26160;51.858;4.398;2024-03-23T14:48:43;8.60;1.00
40454;DHT22;26160;51.858;4.398;2024-03-23T14:51:10;8.50;99.90
40454;DHT22;26160;51.858;4.398;2024-03-23T14:53:38;8.50;99.90
40454;DHT22;26160;51.858;4.398;2024-03-23T14:56:06;8.40;99.90
40454;DHT22;26160;51.858;4.398;2024-03-23T14:58:33;8.60;1.00
40454;DHT22;26160;51.858;4.398;2024-03-23T15:01:07;8.70;99.90
40454;DHT22;26160;51.858;4.398;2024-03-23T15:03:37;8.80;1.00
40454;DHT22;26160;51.858;4.398;2024-03-23T15:06:06;8.80;1.00
40454;DHT22;26160;51.858;4.398;2024-03-23T15:08:32;8.90;1.00
40454;DHT22;26160;51.858;4.398;2024-03-23T15:10:59;9.00;1.00
40454;DHT22;26160;51.858;4.398;2024-03-23T15:13:25;9.00;1.00
40454;DHT22;26160;51.858;4.398;2024-03-23T15:15:51;9.00;1.00
40454;DHT22;26160;51.858;4.398;2024-03-23T15:18:18;9.10;1.00
40454;DHT22;26160;51.858;4.398;2024-03-23T15:20:55;9.10;1.00
40454;DHT22;26160;51.858;4.398;2024-03-23T15:23:22;8.90;1.00
40454;DHT22;26160;51.858;4.398;2024-03-23T15:26:15;9.00;1.00
40454;DHT22;26160;51.858;4.398;2024-03-23T15:28:42;9.30;1.00
40454;DHT22;26160;51.858;4.398;2024-03-23T15:31:23;9.80;99.90
40454;DHT22;26160;51.858;4.398;2024-03-23T15:33:50;10.10;1.00
40454;DHT22;26160;51.858;4.398;2024-03-23T15:36:16;10.30;1.00
40454;DHT22;26160;51.858;4.398;2024-03-23T15:38:43;10.30;99.90
40454;DHT22;26160;51.858;4.398;2024-03-23T15:41:10;10.30;1.00
40454;DHT22;26160;51.858;4.398;2024-03-23T15:43:36;10.10;1.00
40454;DHT22;26160;51.858;4.398;2024-03-23T15:46:04;10.10;1.00
40454;DHT22;26160;51.858;4.398;2024-03-23T15:48:31;10.00;86.40
40454;DHT22;26160;51.858;4.398;2024-03-23T15:50:59;9.90;1.00
40454;DHT22;26160;51.858;4.398;2024-03-23T15:53:26;9.80;1.00
40454;DHT22;26160;51.858;4.398;2024-03-23T15:56:02;9.60;99.90
40454;DHT22;26160;51.858;4.398;2024-03-23T15:58:30;9.30;99.90
40454;DHT22;26160;51.858;4.398;2024-03-23T16:01:07;9.20;30.80
40454;DHT22;26160;51.858;4.398;2024-03-23T16:03:39;9.00;99.90
40454;DHT22;26160;51.858;4.398;2024-03-23T16:06:06;8.90;99.90
40454;DHT22;26160;51.858;4.398;2024-03-23T16:08:33;8.80;1.00
40454;DHT22;26160;51.858;4.398;2024-03-23T16:11:04;8.40;1.00
40454;DHT22;26160;51.858;4.398;2024-03-23T16:13:31;8.20;1.00
40454;DHT22;26160;51.858;4.398;2024-03-23T16:16:04;8.10;1.00
40454;DHT22;26160;51.858;4.398;2024-03-23T16:18:34;8.10;1.00
40454;DHT22;26160;51.858;4.398;2024-03-23T16:21:03;8.30;1.00
40454;DHT22;26160;51.858;4.398;2024-03-23T16:23:29;8.60;1.00
40454;DHT22;26160;51.858;4.398;2024-03-23T16:25:56;8.70;1.00
40454;DHT22;26160;51.858;4.398;2024-03-23T16:28:28;8.80;1.00
40454;DHT22;26160;51.858;4.398;2024-03-23T16:30:55;8.90;1.00
40454;DHT22;26160;51.858;4.398;2024-03-23T16:33:21;9.10;1.00
40454;DHT22;26160;51.858;4.398;2024-03-23T16:36:01;9.20;1.00
40454;DHT22;26160;51.858;4.398;2024-03-23T16:38:28;9.30;99.90
40454;DHT22;26160;51.858;4.398;2024-03-23T16:40:57;9.40;1.00
40454;DHT22;26160;51.858;4.398;2024-03-23T16:43:24;9.30;1.00
40454;DHT22;26160;51.858;4.398;2024-03-23T16:45:58;9.20;1.00
40454;DHT22;26160;51.858;4.398;2024-03-23T16:48:25;9.10;1.00
40454;DHT22;26160;51.858;4.398;2024-03-23T16:50:51;9.00;1.00
40454;DHT22;26160;51.858;4.398;2024-03-23T16:53:19;9.00;1.00
40454;DHT22;26160;51.858;4.398;2024-03-23T16:55:45;9.00;1.00
40454;DHT22;26160;51.858;4.398;2024-03-23T16:58:11;8.90;1.00